createdAt,value
2022-12-22T00:00:01.254Z,100409.22
2022-12-22T00:02:46.995Z,100394.38
2022-12-22T00:05:55.493Z,100396.13
2022-12-22T00:08:40.567Z,100398.75
2022-12-22T00:11:29.961Z,100388.25
2022-12-22T00:14:15.920Z,100387.38
2022-12-22T00:17:01.247Z,100378.63
2022-12-22T00:19:47.892Z,100381.25
2022-12-22T00:22:40.069Z,100383.03
2022-12-22T00:25:26.182Z,100381.25
2022-12-22T00:28:11.215Z,100382.16
2022-12-22T00:30:56.669Z,100377.78
2022-12-22T00:33:43.319Z,100372.53
2022-12-22T00:36:31.145Z,100362.91
2022-12-22T00:39:21.221Z,100355.03
2022-12-22T00:42:06.325Z,100352.41
2022-12-22T00:44:51.253Z,100353.28
2022-12-22T00:47:47.571Z,100354.16
2022-12-22T00:50:34.212Z,100346.25
2022-12-22T00:53:20.640Z,100346.25
2022-12-22T00:56:05.958Z,100345.41
2022-12-22T00:58:50.886Z,100343.63
2022-12-22T01:01:35.838Z,100350.66
2022-12-22T01:04:21.126Z,100339.25
2022-12-22T01:07:06.116Z,100331.38
2022-12-22T01:09:51.348Z,100323.50
2022-12-22T01:12:42.184Z,100324.41
2022-12-22T01:15:40.908Z,100322.63
2022-12-22T01:18:25.667Z,100324.38
2022-12-22T01:21:13.620Z,100321.78
2022-12-22T01:24:00.564Z,100327.88
2022-12-22T01:26:48.479Z,100325.25
2022-12-22T01:29:34.173Z,100306.91
2022-12-22T01:32:19.065Z,100321.78
2022-12-22T01:35:08.536Z,100318.25
2022-12-22T01:37:54.028Z,100320.91
2022-12-22T01:40:43.541Z,100325.25
2022-12-22T01:43:39.563Z,100305.16
2022-12-22T01:46:43.214Z,100316.53
2022-12-22T01:49:34.393Z,100300.78
2022-12-22T01:52:20.446Z,100299.91
2022-12-22T01:55:07.375Z,100306.03
2022-12-22T01:57:53.150Z,100299.00
2022-12-22T02:00:38.465Z,100294.63
2022-12-22T02:03:34.143Z,100284.13
2022-12-22T02:06:44.229Z,100288.50
2022-12-22T02:09:47.240Z,100283.25
2022-12-22T02:13:04.752Z,100280.63
2022-12-22T02:15:57.163Z,100279.75
2022-12-22T02:18:45.328Z,100272.75
2022-12-22T02:21:37.163Z,100274.53
2022-12-22T02:24:40.291Z,100262.25
2022-12-22T02:27:27.268Z,100264.00
2022-12-22T02:30:19.604Z,100277.13
2022-12-22T02:33:10.048Z,100273.63
2022-12-22T02:36:16.263Z,100266.63
2022-12-22T02:39:20.482Z,100264.84
2022-12-22T02:42:20.541Z,100260.47
2022-12-22T02:45:40.830Z,100250.00
2022-12-22T02:48:35.394Z,100248.22
2022-12-22T02:51:25.740Z,100250.00
2022-12-22T02:54:12.429Z,100244.75
2022-12-22T02:56:59.446Z,100250.88
2022-12-22T02:59:44.825Z,100246.50
2022-12-22T03:02:31.864Z,100240.38
2022-12-22T03:05:17.199Z,100229.88
2022-12-22T03:08:07.940Z,100230.72
2022-12-22T03:10:54.095Z,100206.22
2022-12-22T03:13:39.852Z,100224.59
2022-12-22T03:16:36.125Z,100221.97
2022-12-22T03:19:21.325Z,100220.19
2022-12-22T03:22:06.189Z,100221.06
2022-12-22T03:24:51.325Z,100220.19
2022-12-22T03:27:17.999Z,100221.09
2022-12-22T03:29:44.367Z,100215.81
2022-12-22T03:32:10.927Z,100207.94
2022-12-22T03:34:37.392Z,100207.06
2022-12-22T03:37:03.962Z,100210.56
2022-12-22T03:39:30.510Z,100201.81
2022-12-22T03:42:15.665Z,100207.91
2022-12-22T03:45:00.596Z,100200.91
2022-12-22T03:47:32.453Z,100204.44
2022-12-22T03:50:03.234Z,100202.66
2022-12-22T03:52:32.808Z,100201.81
2022-12-22T03:54:59.310Z,100194.78
2022-12-22T03:57:25.710Z,100199.16
2022-12-22T03:59:52.525Z,100191.28
2022-12-22T04:02:19.219Z,100190.41
2022-12-22T04:04:46.258Z,100192.16
2022-12-22T04:07:12.711Z,100183.38
2022-12-22T04:09:59.487Z,100198.28
2022-12-22T04:12:44.441Z,100202.66
2022-12-22T04:15:11.919Z,100193.88
2022-12-22T04:17:39.384Z,100201.75
2022-12-22T04:20:07.176Z,100203.53
2022-12-22T04:22:33.605Z,100201.78
2022-12-22T04:25:00.087Z,100201.78
2022-12-22T04:27:26.514Z,100199.16
2022-12-22T04:29:52.941Z,100201.78
2022-12-22T04:32:19.538Z,100203.53
2022-12-22T04:34:46.024Z,100205.28
2022-12-22T04:37:17.191Z,100196.53
2022-12-22T04:39:45.521Z,100216.69
2022-12-22T04:42:12.005Z,100224.53
2022-12-22T04:44:38.487Z,100221.91
2022-12-22T04:47:04.988Z,100218.41
2022-12-22T04:49:31.549Z,100220.16
2022-12-22T04:51:58.036Z,100226.28
2022-12-22T04:54:24.698Z,100230.69
2022-12-22T04:56:53.615Z,100228.06
2022-12-22T04:59:20.134Z,100230.69
2022-12-22T05:01:48.925Z,100225.41
2022-12-22T05:04:20.324Z,100218.44
2022-12-22T05:06:50.008Z,100215.81
2022-12-22T05:09:16.513Z,100222.81
2022-12-22T05:11:44.054Z,100219.31
2022-12-22T05:14:10.523Z,100217.56
2022-12-22T05:16:37.076Z,100221.94
2022-12-22T05:19:03.686Z,100223.69
2022-12-22T05:21:30.160Z,100226.31
2022-12-22T05:23:56.576Z,100221.06
2022-12-22T05:26:22.980Z,100224.59
2022-12-22T05:28:52.613Z,100239.44
2022-12-22T05:31:24.449Z,100249.09
2022-12-22T05:33:51.346Z,100251.72
2022-12-22T05:36:18.341Z,100256.09
2022-12-22T05:38:44.898Z,100252.59
2022-12-22T05:41:11.816Z,100258.72
2022-12-22T05:43:38.507Z,100258.75
2022-12-22T05:46:08.487Z,100253.50
2022-12-22T05:48:39.177Z,100262.22
2022-12-22T05:51:07.541Z,100261.38
2022-12-22T05:53:34.195Z,100258.75
2022-12-22T05:56:00.727Z,100252.59
2022-12-22T05:58:27.328Z,100251.75
2022-12-22T06:00:58.172Z,100255.25
2022-12-22T06:03:28.817Z,100264.00
2022-12-22T06:05:55.582Z,100260.47
2022-12-22T06:08:22.829Z,100256.13
2022-12-22T06:10:49.326Z,100258.72
2022-12-22T06:13:15.935Z,100271.88
2022-12-22T06:15:42.617Z,100266.63
2022-12-22T06:18:09.191Z,100270.13
2022-12-22T06:20:35.647Z,100275.38
2022-12-22T06:23:07.833Z,100272.78
2022-12-22T06:25:34.137Z,100283.28
2022-12-22T06:28:00.984Z,100286.75
2022-12-22T06:30:32.925Z,100289.38
2022-12-22T06:33:02.034Z,100288.47
2022-12-22T06:35:28.749Z,100297.19
2022-12-22T06:37:55.284Z,100296.31
2022-12-22T06:40:21.724Z,100308.56
2022-12-22T06:43:10.225Z,100309.44
2022-12-22T06:45:39.294Z,100312.94
2022-12-22T06:48:06.707Z,100300.66
2022-12-22T06:50:33.527Z,100300.69
2022-12-22T06:53:00.188Z,100321.66
2022-12-22T06:55:26.806Z,100316.41
2022-12-22T06:57:53.514Z,100321.63
2022-12-22T07:00:20.360Z,100321.66
2022-12-22T07:02:47.142Z,100323.38
2022-12-22T07:05:15.546Z,100333.00
2022-12-22T07:07:42.093Z,100340.00
2022-12-22T07:10:09.470Z,100335.66
2022-12-22T07:12:35.934Z,100342.66
2022-12-22T07:15:02.480Z,100354.00
2022-12-22T07:17:29.081Z,100363.63
2022-12-22T07:19:55.539Z,100372.34
2022-12-22T07:22:27.712Z,100363.63
2022-12-22T07:24:56.510Z,100365.34
2022-12-22T07:27:22.944Z,100364.50
2022-12-22T07:29:49.516Z,100365.34
2022-12-22T07:32:15.945Z,100351.28
2022-12-22T07:34:42.457Z,100387.19
2022-12-22T07:37:08.952Z,100394.19
2022-12-22T07:39:35.457Z,100397.66
2022-12-22T07:42:20.274Z,100400.28
2022-12-22T07:44:46.759Z,100401.13
2022-12-22T07:47:13.265Z,100399.38
2022-12-22T07:49:58.210Z,100399.38
2022-12-22T07:52:24.635Z,100403.75
2022-12-22T07:54:51.137Z,100405.50
2022-12-22T07:57:18.691Z,100405.50
2022-12-22T07:59:47.538Z,100414.22
2022-12-22T08:02:14.221Z,100415.09
2022-12-22T08:04:40.744Z,100415.09
2022-12-22T08:07:13.714Z,100419.47
2022-12-22T08:09:40.127Z,100419.44
2022-12-22T08:12:07.010Z,100429.06
2022-12-22T08:14:33.595Z,100430.81
2022-12-22T08:17:00.088Z,100433.47
2022-12-22T08:19:26.546Z,100428.22
2022-12-22T08:21:53.524Z,100424.69
2022-12-22T08:24:20.981Z,100418.59
2022-12-22T08:26:54.041Z,100433.47
2022-12-22T08:29:25.499Z,100436.09
2022-12-22T08:31:52.522Z,100442.19
2022-12-22T08:34:19.021Z,100445.69
2022-12-22T08:36:52.318Z,100457.88
2022-12-22T08:39:21.386Z,100470.09
2022-12-22T08:41:50.715Z,100465.72
2022-12-22T08:44:26.571Z,100458.72
2022-12-22T08:46:55.754Z,100470.91
2022-12-22T08:49:23.253Z,100484.00
2022-12-22T08:51:50.428Z,100484.81
2022-12-22T08:54:17.436Z,100470.69
2022-12-22T08:56:45.360Z,100490.84
2022-12-22T08:59:14.698Z,100488.22
2022-12-22T09:01:46.002Z,100490.84
2022-12-22T09:04:14.201Z,100497.81
2022-12-22T09:06:41.466Z,100494.28
2022-12-22T09:09:10.573Z,100492.53
2022-12-22T09:11:37.244Z,100508.22
2022-12-22T09:14:05.232Z,100511.72
2022-12-22T09:16:34.873Z,100505.59
2022-12-22T09:19:02.005Z,100517.00
2022-12-22T09:21:29.250Z,100517.06
2022-12-22T09:23:56.763Z,100514.47
2022-12-22T09:26:27.527Z,100519.72
2022-12-22T09:28:57.529Z,100527.53
2022-12-22T09:31:25.450Z,100535.44
2022-12-22T09:33:52.547Z,100532.81
2022-12-22T09:36:22.385Z,100519.72
2022-12-22T09:38:49.142Z,100525.00
2022-12-22T09:41:34.843Z,100522.53
2022-12-22T09:44:03.904Z,100526.97
2022-12-22T09:46:44.580Z,100533.16
2022-12-22T09:49:16.034Z,100539.34
2022-12-22T09:51:48.963Z,100540.22
2022-12-22T09:54:16.313Z,100545.47
2022-12-22T09:56:43.301Z,100554.22
2022-12-22T09:59:15.303Z,100559.47
2022-12-22T10:02:06.427Z,100558.56
2022-12-22T10:04:46.898Z,100551.50
2022-12-22T10:07:20.454Z,100541.84
2022-12-22T10:09:51.484Z,100553.31
2022-12-22T10:12:21.451Z,100548.09
2022-12-22T10:14:49.869Z,100534.16
2022-12-22T10:17:19.373Z,100535.09
2022-12-22T10:20:14.951Z,100542.28
2022-12-22T10:23:02.871Z,100558.16
2022-12-22T10:26:26.351Z,100549.50
2022-12-22T10:28:45.168Z,100546.94
2022-12-22T10:31:25.201Z,100552.19
2022-12-22T10:33:57.855Z,100558.22
2022-12-22T10:36:26.287Z,100556.34
2022-12-22T10:39:05.500Z,100569.28
2022-12-22T10:41:43.107Z,100553.25
2022-12-22T10:44:21.286Z,100555.66
2022-12-22T10:47:17.312Z,100550.97
2022-12-22T10:49:48.287Z,100557.72
2022-12-22T10:52:17.769Z,100559.34
2022-12-22T10:54:48.698Z,100560.91
2022-12-22T10:57:17.671Z,100554.63
2022-12-22T11:00:01.260Z,100560.66
2022-12-22T11:02:38.002Z,100563.28
2022-12-22T11:05:10.274Z,100555.44
2022-12-22T11:07:47.597Z,100564.31
2022-12-22T11:10:32.366Z,100564.31
2022-12-22T11:13:29.783Z,100567.78
2022-12-22T11:16:50.037Z,100574.63
2022-12-22T11:19:36.568Z,100570.75
2022-12-22T11:22:23.328Z,100573.00
2022-12-22T11:28:33.015Z,100560.47
2022-12-22T11:31:23.968Z,100564.63
2022-12-22T11:34:23.195Z,100557.78
2022-12-22T11:37:14.378Z,100559.50
2022-12-22T11:39:57.495Z,100552.66
2022-12-22T11:42:48.934Z,100550.34
2022-12-22T11:45:43.628Z,100557.81
2022-12-22T11:49:05.049Z,100549.66
2022-12-22T11:51:46.440Z,100555.13
2022-12-22T11:54:15.614Z,100559.84
2022-12-22T11:56:54.429Z,100553.97
2022-12-22T11:59:30.464Z,100556.53
2022-12-22T12:02:17.942Z,100550.16
2022-12-22T12:05:07.450Z,100561.31
2022-12-22T12:07:41.739Z,100563.25
2022-12-22T12:10:26.228Z,100560.13
2022-12-22T12:13:03.505Z,100555.22
2022-12-22T12:15:34.462Z,100556.31
2022-12-22T12:18:30.367Z,100555.34
2022-12-22T12:21:14.392Z,100550.03
2022-12-22T12:24:13.177Z,100546.88
2022-12-22T12:26:53.983Z,100561.25
2022-12-22T12:29:25.671Z,100553.91
2022-12-22T12:32:03.443Z,100551.81
2022-12-22T12:34:34.424Z,100552.25
2022-12-22T12:37:22.662Z,100552.63
2022-12-22T12:40:21.665Z,100550.09
2022-12-22T12:42:49.031Z,100550.56
2022-12-22T12:45:41.200Z,100550.94
2022-12-22T12:48:23.488Z,100549.44
2022-12-22T12:50:54.824Z,100560.31
2022-12-22T12:53:23.190Z,100578.91
2022-12-22T12:55:49.518Z,100575.56
2022-12-22T12:58:37.925Z,100580.03
2022-12-22T13:01:05.279Z,100593.31
2022-12-22T13:06:50.953Z,100607.41
2022-12-22T13:12:34.761Z,100608.16
2022-12-22T13:15:01.792Z,100592.38
2022-12-22T13:17:50.318Z,100594.09
2022-12-22T13:20:25.346Z,100594.06
2022-12-22T13:22:56.815Z,100595.81
2022-12-22T13:25:36.578Z,100607.13
2022-12-22T13:28:03.975Z,100587.84
2022-12-22T13:30:30.612Z,100589.56
2022-12-22T13:33:02.098Z,100596.56
2022-12-22T13:35:59.172Z,100578.16
2022-12-22T13:38:31.571Z,100582.50
2022-12-22T13:40:59.876Z,100583.31
2022-12-22T13:43:29.165Z,100579.75
2022-12-22T13:45:59.288Z,100574.50
2022-12-22T13:48:33.396Z,100562.25
2022-12-22T13:51:05.305Z,100559.72
2022-12-22T13:54:07.237Z,100559.75
2022-12-22T13:56:48.394Z,100550.97
2022-12-22T13:59:42.221Z,100552.69
2022-12-22T14:02:08.848Z,100552.69
2022-12-22T14:04:38.620Z,100537.81
2022-12-22T14:07:22.947Z,100547.50
2022-12-22T14:09:54.939Z,100545.75
2022-12-22T14:12:24.895Z,100541.41
2022-12-22T14:14:53.911Z,100536.19
2022-12-22T14:17:28.874Z,100537.03
2022-12-22T14:19:58.644Z,100507.28
2022-12-22T14:22:27.962Z,100528.31
2022-12-22T14:25:00.363Z,100523.00
2022-12-22T14:27:36.806Z,100528.28
2022-12-22T14:30:07.582Z,100522.16
2022-12-22T14:32:43.808Z,100520.41
2022-12-22T14:35:21.238Z,100513.44
2022-12-22T14:37:49.542Z,100515.19
2022-12-22T14:40:57.422Z,100503.84
2022-12-22T14:43:33.881Z,100500.34
2022-12-22T14:46:05.869Z,100497.72
2022-12-22T14:48:37.555Z,100500.31
2022-12-22T14:51:05.067Z,100499.47
2022-12-22T14:53:48.640Z,100502.97
2022-12-22T14:56:17.843Z,100494.22
2022-12-22T14:58:46.683Z,100490.69
2022-12-22T15:01:29.233Z,100489.81
2022-12-22T15:04:07.871Z,100490.69
2022-12-22T15:06:38.719Z,100489.81
2022-12-22T15:09:06.598Z,100485.47
2022-12-22T15:11:37.171Z,100482.81
2022-12-22T15:14:05.497Z,100478.44
2022-12-22T15:16:32.910Z,100481.94
2022-12-22T15:18:59.467Z,100472.28
2022-12-22T15:21:26.068Z,100480.16
2022-12-22T15:23:55.411Z,100477.53
2022-12-22T15:26:31.766Z,100472.28
2022-12-22T15:29:00.855Z,100475.78
2022-12-22T15:31:30.455Z,100469.66
2022-12-22T15:34:04.148Z,100462.66
2022-12-22T15:36:30.769Z,100453.00
2022-12-22T15:39:03.056Z,100453.00
2022-12-22T15:41:30.040Z,100447.72
2022-12-22T15:43:58.590Z,100451.25
2022-12-22T15:46:25.410Z,100452.09
2022-12-22T15:48:52.569Z,100446.78
2022-12-22T15:51:37.880Z,100443.28
2022-12-22T15:54:04.747Z,100444.19
2022-12-22T15:56:33.354Z,100441.56
2022-12-22T15:59:01.616Z,100440.66
2022-12-22T16:01:28.851Z,100438.03
2022-12-22T16:03:55.695Z,100438.03
2022-12-22T16:06:22.281Z,100438.91
2022-12-22T16:08:53.039Z,100431.00
2022-12-22T16:11:22.022Z,100422.25
2022-12-22T16:13:50.383Z,100423.13
2022-12-22T16:16:17.551Z,100417.84
2022-12-22T16:18:44.005Z,100408.25
2022-12-22T16:21:17.434Z,100407.38
2022-12-22T16:23:49.076Z,100399.50
2022-12-22T16:26:19.884Z,100380.22
2022-12-22T16:28:46.706Z,100393.38
2022-12-22T16:31:22.384Z,100380.19
2022-12-22T16:33:48.854Z,100384.59
2022-12-22T16:36:15.526Z,100370.63
2022-12-22T16:38:42.477Z,100374.97
2022-12-22T16:41:24.654Z,100365.38
2022-12-22T16:43:53.475Z,100362.72
2022-12-22T16:46:22.733Z,100359.25
2022-12-22T16:48:53.019Z,100368.00
2022-12-22T16:51:33.576Z,100362.75
2022-12-22T16:54:03.461Z,100352.25
2022-12-22T16:56:34.796Z,100360.09
2022-12-22T16:59:02.890Z,100352.22
2022-12-22T17:01:40.125Z,100348.75
2022-12-22T17:04:22.898Z,100342.59
2022-12-22T17:06:50.534Z,100340.00
2022-12-22T17:09:25.134Z,100331.28
2022-12-22T17:11:55.151Z,100340.00
2022-12-22T17:14:33.150Z,100340.03
2022-12-22T17:16:59.687Z,100337.41
2022-12-22T17:19:27.741Z,100335.69
2022-12-22T17:21:57.570Z,100322.56
2022-12-22T17:24:28.023Z,100312.03
2022-12-22T17:26:56.483Z,100309.41
2022-12-22T17:29:25.485Z,100305.91
2022-12-22T17:31:57.263Z,100312.91
2022-12-22T17:34:23.759Z,100300.66
2022-12-22T17:36:50.637Z,100291.06
2022-12-22T17:39:21.162Z,100287.56
2022-12-22T17:41:54.303Z,100283.16
2022-12-22T17:44:24.427Z,100289.31
2022-12-22T17:46:51.018Z,100277.94
2022-12-22T17:49:19.906Z,100278.78
2022-12-22T17:51:46.838Z,100277.03
2022-12-22T17:54:24.758Z,100278.78
2022-12-22T17:56:52.036Z,100278.78
2022-12-22T17:59:18.428Z,100269.19
2022-12-22T18:01:45.148Z,100273.56
2022-12-22T18:04:11.808Z,100269.19
2022-12-22T18:06:39.888Z,100270.03
2022-12-22T18:09:07.363Z,100271.81
2022-12-22T18:11:34.505Z,100271.81
2022-12-22T18:14:01.018Z,100268.34
2022-12-22T18:16:27.656Z,100256.06
2022-12-22T18:18:54.156Z,100257.84
2022-12-22T18:21:25.014Z,100258.72
2022-12-22T18:23:54.039Z,100241.22
2022-12-22T18:26:29.866Z,100228.97
2022-12-22T18:28:57.244Z,100236.84
2022-12-22T18:31:25.107Z,100232.50
2022-12-22T18:33:51.958Z,100235.13
2022-12-22T18:36:29.676Z,100228.97
2022-12-22T18:38:58.755Z,100231.59
2022-12-22T18:41:26.667Z,100229.00
2022-12-22T18:43:53.093Z,100222.00
2022-12-22T18:46:20.291Z,100222.00
2022-12-22T18:48:48.058Z,100216.75
2022-12-22T18:51:23.340Z,100215.91
2022-12-22T18:56:37.919Z,100218.50
2022-12-22T18:59:22.953Z,100210.63
2022-12-22T19:01:51.967Z,100201.88
2022-12-22T19:04:18.959Z,100208.00
2022-12-22T19:06:45.341Z,100212.38
2022-12-22T19:09:17.718Z,100209.75
2022-12-22T19:11:44.353Z,100208.88
2022-12-22T19:14:25.593Z,100207.13
2022-12-22T19:17:00.150Z,100198.38
2022-12-22T19:19:29.551Z,100200.97
2022-12-22T19:21:56.086Z,100201.88
2022-12-22T19:24:29.025Z,100200.97
2022-12-22T19:26:55.609Z,100202.75
2022-12-22T19:29:22.293Z,100198.38
2022-12-22T19:31:51.258Z,100194.00
2022-12-22T19:34:20.181Z,100196.63
2022-12-22T19:36:46.724Z,100201.84
2022-12-22T19:39:13.452Z,100196.59
2022-12-22T19:41:57.689Z,100196.59
2022-12-22T19:44:30.803Z,100199.22
2022-12-22T19:46:59.221Z,100189.56
2022-12-22T19:49:28.600Z,100201.84
2022-12-22T19:51:56.280Z,100198.31
2022-12-22T19:54:23.056Z,100202.69
2022-12-22T19:56:55.733Z,100200.06
2022-12-22T19:59:38.156Z,100192.19
2022-12-22T20:02:37.587Z,100195.66
2022-12-22T20:05:07.745Z,100189.53
2022-12-22T20:07:38.892Z,100189.53
2022-12-22T20:10:05.943Z,100194.78
2022-12-22T20:12:40.341Z,100200.03
2022-12-22T20:15:16.324Z,100185.13
2022-12-22T20:17:43.265Z,100194.75
2022-12-22T20:20:15.455Z,100193.03
2022-12-22T20:22:48.826Z,100192.13
2022-12-22T20:25:21.180Z,100194.72
2022-12-22T20:27:48.155Z,100199.09
2022-12-22T20:30:27.795Z,100179.88
2022-12-22T20:32:54.484Z,100197.34
2022-12-22T20:35:22.542Z,100191.25
2022-12-22T20:37:50.380Z,100199.97
2022-12-22T20:40:23.264Z,100193.84
2022-12-22T20:42:50.016Z,100190.34
2022-12-22T20:45:18.374Z,100191.22
2022-12-22T20:47:52.559Z,100185.06
2022-12-22T20:50:28.655Z,100188.59
2022-12-22T20:52:57.059Z,100193.81
2022-12-22T20:55:28.990Z,100199.97
2022-12-22T20:58:06.724Z,100203.47
2022-12-22T21:00:43.003Z,100201.72
2022-12-22T21:03:14.032Z,100205.22
2022-12-22T21:05:41.375Z,100206.09
2022-12-22T21:08:20.523Z,100203.47
2022-12-22T21:10:50.097Z,100199.97
2022-12-22T21:13:18.147Z,100207.84
2022-12-22T21:15:49.359Z,100200.81
2022-12-22T21:18:18.779Z,100208.72
2022-12-22T21:20:49.422Z,100202.56
2022-12-22T21:23:17.360Z,100212.22
2022-12-22T21:25:48.281Z,100215.72
2022-12-22T21:28:35.357Z,100206.97
2022-12-22T21:31:03.440Z,100205.22
2022-12-22T21:33:30.316Z,100204.31
2022-12-22T21:35:58.464Z,100213.06
2022-12-22T21:38:32.305Z,100210.44
2022-12-22T21:40:59.144Z,100210.44
2022-12-22T21:43:25.607Z,100198.19
2022-12-22T21:45:55.099Z,100207.81
2022-12-22T21:48:21.557Z,100215.72
2022-12-22T21:50:51.824Z,100205.22
2022-12-22T21:53:22.340Z,100211.34
2022-12-22T21:55:49.535Z,100210.47
2022-12-22T21:58:16.611Z,100211.31
2022-12-22T22:00:50.584Z,100210.47
2022-12-22T22:03:17.028Z,100215.72
2022-12-22T22:05:43.910Z,100216.59
2022-12-22T22:08:14.602Z,100220.97
2022-12-22T22:10:44.257Z,100221.84
2022-12-22T22:13:15.328Z,100218.34
2022-12-22T22:15:42.701Z,100228.00
2022-12-22T22:18:16.019Z,100229.72
2022-12-22T22:20:42.713Z,100223.59
2022-12-22T22:23:15.394Z,100228.00
2022-12-22T22:25:46.428Z,100230.59
2022-12-22T22:28:13.417Z,100234.13
2022-12-22T22:30:42.022Z,100237.63
2022-12-22T22:33:10.640Z,100237.66
2022-12-22T22:35:41.618Z,100244.66
2022-12-22T22:38:25.846Z,100239.41
2022-12-22T22:40:56.156Z,100235.03
2022-12-22T22:43:22.804Z,100238.53
2022-12-22T22:45:49.252Z,100237.66
2022-12-22T22:48:22.745Z,100237.69
2022-12-22T22:50:50.302Z,100241.19
2022-12-22T22:53:17.209Z,100239.41
2022-12-22T22:55:43.789Z,100240.31
2022-12-22T22:58:13.377Z,100237.66
2022-12-22T23:00:40.238Z,100236.81
2022-12-22T23:03:07.037Z,100242.94
2022-12-22T23:05:36.666Z,100237.66
2022-12-22T23:08:05.671Z,100235.03
2022-12-22T23:10:37.769Z,100235.91
2022-12-22T23:13:08.200Z,100228.88
2022-12-22T23:15:35.091Z,100225.41
2022-12-22T23:18:02.396Z,100232.38
2022-12-22T23:20:29.047Z,100232.38
2022-12-22T23:22:58.649Z,100233.28
2022-12-22T23:25:25.471Z,100226.25
2022-12-22T23:27:52.227Z,100229.75
2022-12-22T23:30:28.112Z,100239.41
2022-12-22T23:32:54.848Z,100238.50
2022-12-22T23:35:21.512Z,100239.41
2022-12-22T23:37:48.744Z,100244.66
2022-12-22T23:40:50.670Z,100237.59
2022-12-22T23:43:01.952Z,100242.88
2022-12-22T23:45:29.457Z,100246.41
2022-12-22T23:47:56.997Z,100247.28
2022-12-22T23:50:24.313Z,100251.66
2022-12-22T23:52:52.050Z,100255.16
2022-12-22T23:55:19.887Z,100249.00
2022-12-22T23:57:47.378Z,100254.25
